Time;durP1;ratioP1;P1;durP2;ratioP2;P2;SDS_P1;SDS_P2;PMS_P1;PMS_P2;Temp;Humidity;BMP_temperature;BMP_pressure;BME280_temperature;BME280_humidity;BME280_pressure;Samples;Min_cycle;Max_cycle;Signal;HPM_P1;HPM_P2
2022/06/07 00:00:38;;;;;;;0.10;0.10;;;18.50;79.90;;;;;;5033261;28;20025;-80
2022/06/07 00:03:05;;;;;;;0.70;0.28;;;19.10;80.00;;;;;;5033491;28;20044;-75
2022/06/07 00:05:33;;;;;;;0.35;0.20;;;19.70;78.00;;;;;;5036798;28;20120;-82
2022/06/07 00:08:00;;;;;;;0.35;0.10;;;19.90;77.40;;;;;;5053123;28;20021;-79
2022/06/07 00:10:28;;;;;;;0.15;0.10;;;19.70;77.80;;;;;;5050181;28;20036;-79
2022/06/07 00:12:55;;;;;;;0.10;0.10;;;20.00;77.30;;;;;;5045692;28;20022;-78
2022/06/07 00:15:23;;;;;;;0.08;0.08;;;20.00;75.70;;;;;;5041929;28;20029;-79
2022/06/07 00:17:50;;;;;;;1.83;0.10;;;20.40;75.50;;;;;;5039608;28;20025;-77
2022/06/07 00:20:18;;;;;;;0.35;0.10;;;20.60;74.50;;;;;;5039208;28;20025;-80
2022/06/07 00:22:46;;;;;;;0.10;0.10;;;20.40;74.80;;;;;;5037319;28;20036;-77
2022/06/07 00:25:15;;;;;;;0.63;0.10;;;20.70;75.60;;;;;;5041046;28;20388;-80
2022/06/07 00:27:43;;;;;;;0.47;0.10;;;21.00;74.60;;;;;;5054367;28;20456;-80
2022/06/07 00:30:12;;;;;;;0.10;0.10;;;21.60;74.70;;;;;;5047216;28;20436;-80
2022/06/07 00:32:41;;;;;;;0.32;0.10;;;21.60;72.60;;;;;;5044791;28;20090;-81
2022/06/07 00:35:10;;;;;;;0.20;0.10;;;21.40;73.60;;;;;;5043811;28;20057;-82
2022/06/07 00:37:37;;;;;;;0.25;0.10;;;21.70;73.50;;;;;;5035631;28;20040;-82
2022/06/07 00:40:06;;;;;;;1.85;0.10;;;22.00;72.70;;;;;;5034309;28;20029;-78
2022/06/07 00:42:34;;;;;;;0.08;0.00;;;22.60;72.50;;;;;;5036006;28;20033;-77
2022/06/07 00:45:02;;;;;;;1.30;0.08;;;23.00;71.80;;;;;;5038169;28;20040;-82
2022/06/07 00:47:32;;;;;;;0.00;0.00;;;23.00;70.80;;;;;;5036409;28;20025;-81
2022/06/07 00:50:11;;;;;;;0.28;0.10;;;23.40;72.70;;;;;;5038719;28;20072;-81
2022/06/07 00:52:38;;;;;;;0.00;0.00;;;23.60;69.90;;;;;;5038321;28;20098;-80
2022/06/07 00:55:08;;;;;;;0.08;0.00;;;23.90;70.00;;;;;;5034216;28;20106;-79
2022/06/07 00:57:36;;;;;;;0.37;0.10;;;24.50;70.20;;;;;;5036123;28;20067;-83
2022/06/07 01:00:10;;;;;;;0.00;0.00;;;24.70;68.40;;;;;;5041940;28;20034;-82
2022/06/07 01:02:38;;;;;;;0.32;0.10;;;24.60;68.10;;;;;;5040046;28;20376;-75
2022/06/07 01:05:05;;;;;;;1.25;0.00;;;24.60;68.40;;;;;;5038604;28;20032;-80
2022/06/07 01:13:04;;;;;;;0.47;0.10;;;24.00;68.00;;;;;;5057201;28;20064;-81
2022/06/07 01:15:31;;;;;;;0.00;0.00;;;23.80;68.60;;;;;;5046137;28;20037;-82
2022/06/07 01:17:58;;;;;;;0.45;0.05;;;23.40;67.90;;;;;;5038048;28;20041;-82
2022/06/07 01:20:26;;;;;;;0.00;0.00;;;22.90;69.00;;;;;;5040649;28;20039;-81
2022/06/07 01:22:53;;;;;;;0.00;0.00;;;23.40;69.50;;;;;;5052123;28;20025;-83
2022/06/07 01:25:21;;;;;;;0.00;0.00;;;23.70;68.40;;;;;;5043210;28;20040;-82
2022/06/07 01:27:48;;;;;;;0.00;0.00;;;23.90;68.10;;;;;;5036200;28;20463;-81
2022/06/07 01:30:16;;;;;;;0.00;0.00;;;24.00;68.10;;;;;;5043591;28;20076;-82
2022/06/07 01:32:43;;;;;;;0.10;0.10;;;24.10;67.60;;;;;;5039063;28;20033;-80
2022/06/07 01:35:11;;;;;;;0.00;0.00;;;24.20;66.80;;;;;;5048753;28;20036;-80
2022/06/07 01:37:38;;;;;;;0.00;0.00;;;24.30;68.50;;;;;;5053486;28;20075;-79
2022/06/07 01:42:52;;;;;;;0.10;0.10;;;24.20;67.20;;;;;;5034349;28;20033;-80
2022/06/07 01:45:21;;;;;;;0.00;0.00;;;24.20;69.30;;;;;;5036983;28;20374;-79
2022/06/07 01:47:49;;;;;;;0.00;0.00;;;24.40;66.50;;;;;;5050751;28;20174;-81
2022/06/07 01:50:18;;;;;;;0.00;0.00;;;24.30;66.20;;;;;;5052708;28;20045;-78
2022/06/07 01:52:45;;;;;;;0.10;0.00;;;24.00;66.60;;;;;;5044511;28;20029;-78
2022/06/07 01:55:13;;;;;;;0.10;0.10;;;22.40;66.20;;;;;;5031057;28;20033;-76
2022/06/07 01:57:40;;;;;;;0.10;0.10;;;21.40;68.50;;;;;;5036498;28;20033;-80
2022/06/07 02:00:08;;;;;;;0.10;0.10;;;20.20;70.70;;;;;;5046431;28;20445;-80
2022/06/07 02:02:35;;;;;;;0.00;0.00;;;20.40;70.90;;;;;;5040931;28;20106;-80
2022/06/07 02:05:03;;;;;;;0.00;0.00;;;20.70;70.60;;;;;;5050171;28;20029;-79
2022/06/07 02:07:31;;;;;;;0.08;0.08;;;20.60;70.30;;;;;;5043095;28;20104;-81
2022/06/07 02:09:58;;;;;;;0.17;0.00;;;21.20;69.80;;;;;;5049598;28;20029;-81
2022/06/07 02:12:26;;;;;;;0.17;0.10;;;21.20;69.40;;;;;;5047306;28;20498;-82
2022/06/07 02:14:53;;;;;;;0.20;0.10;;;21.60;68.80;;;;;;5043322;28;20041;-76
2022/06/07 02:17:20;;;;;;;0.00;0.00;;;21.60;69.30;;;;;;5033090;28;20029;-79
2022/06/07 02:19:48;;;;;;;0.57;0.57;;;22.30;69.00;;;;;;5042860;28;20056;-83
2022/06/07 02:22:15;;;;;;;0.00;0.00;;;22.90;68.80;;;;;;5048690;28;20526;-79
2022/06/07 02:24:42;;;;;;;0.08;0.00;;;23.80;68.70;;;;;;5041424;28;20037;-82
2022/06/07 02:27:19;;;;;;;3.40;0.20;;;23.60;66.60;;;;;;5038020;28;20020;-81
2022/06/07 02:29:49;;;;;;;0.95;0.17;;;23.60;66.80;;;;;;5041389;28;20029;-80
2022/06/07 02:32:27;;;;;;;0.08;0.05;;;23.40;66.50;;;;;;5043873;28;20026;-84
2022/06/07 02:34:58;;;;;;;0.10;0.10;;;23.40;65.50;;;;;;5036586;28;20033;-84
2022/06/07 02:37:27;;;;;;;0.10;0.10;;;22.90;66.30;;;;;;5036915;28;20028;-81
2022/06/07 02:39:55;;;;;;;0.13;0.00;;;22.20;66.40;;;;;;5052023;28;20044;-83
2022/06/07 02:42:26;;;;;;;0.05;0.00;;;21.20;68.50;;;;;;5035499;28;20488;-84
2022/06/07 02:44:53;;;;;;;0.05;0.05;;;20.50;68.70;;;;;;5046436;28;20037;-82
2022/06/07 02:47:21;;;;;;;1.55;0.00;;;20.60;68.40;;;;;;5034045;28;20033;-81
2022/06/07 02:49:48;;;;;;;1.77;0.10;;;21.10;68.70;;;;;;5049564;28;20340;-82
2022/06/07 02:52:15;;;;;;;0.17;0.10;;;21.10;68.50;;;;;;5053010;28;20077;-80
2022/06/07 02:54:43;;;;;;;0.10;0.05;;;21.20;68.00;;;;;;5051542;28;20441;-81
2022/06/07 02:57:11;;;;;;;0.10;0.10;;;21.30;68.10;;;;;;5045342;28;20056;-80
2022/06/07 02:59:38;;;;;;;0.00;0.00;;;21.20;68.10;;;;;;5048752;28;20506;-82
2022/06/07 03:02:05;;;;;;;0.10;0.00;;;21.10;69.10;;;;;;5044878;28;20116;-82
2022/06/07 03:04:33;;;;;;;0.20;0.10;;;21.00;68.30;;;;;;5033484;28;20104;-81
2022/06/07 03:07:03;;;;;;;0.35;0.00;;;20.90;69.10;;;;;;5034252;28;20021;-80
2022/06/07 03:09:30;;;;;;;0.73;0.00;;;21.20;68.90;;;;;;5046022;28;20467;-78
2022/06/07 03:11:58;;;;;;;0.00;0.00;;;20.90;68.10;;;;;;5037700;28;20018;-81
2022/06/07 03:14:25;;;;;;;0.00;0.00;;;20.90;69.20;;;;;;5047262;28;20064;-83
2022/06/07 03:16:53;;;;;;;0.00;0.00;;;20.50;68.50;;;;;;5043953;28;20021;-79
2022/06/07 03:19:20;;;;;;;0.00;0.00;;;20.40;69.70;;;;;;5044118;28;20475;-78
2022/06/07 03:21:47;;;;;;;0.00;0.00;;;20.40;69.90;;;;;;5040312;28;20063;-80
2022/06/07 03:24:15;;;;;;;0.28;0.28;;;20.40;70.00;;;;;;5040356;28;20040;-78
2022/06/07 03:26:42;;;;;;;1.02;0.10;;;20.30;69.80;;;;;;5035024;28;20053;-80
2022/06/07 03:29:10;;;;;;;0.85;0.30;;;19.70;69.90;;;;;;5039761;28;20601;-78
2022/06/07 03:31:37;;;;;;;0.32;0.32;;;19.10;71.10;;;;;;5037865;28;20108;-76
2022/06/07 03:34:07;;;;;;;0.00;0.00;;;18.30;72.10;;;;;;5041527;28;20029;-76
2022/06/07 03:36:34;;;;;;;0.00;0.00;;;17.90;72.40;;;;;;5051075;28;20040;-75
2022/06/07 03:39:06;;;;;;;0.32;0.10;;;17.50;73.50;;;;;;5047364;28;20467;-80
2022/06/07 03:41:34;;;;;;;1.50;0.10;;;17.20;73.60;;;;;;5050923;28;20108;-78
2022/06/07 03:44:01;;;;;;;1.27;0.10;;;17.00;74.20;;;;;;5047959;28;20029;-77
2022/06/07 03:46:31;;;;;;;1.10;0.10;;;17.00;73.70;;;;;;5037632;28;20045;-79
2022/06/07 03:48:59;;;;;;;0.65;0.20;;;16.90;74.20;;;;;;5033382;28;20161;-76
2022/06/07 03:51:28;;;;;;;0.10;0.10;;;16.90;74.50;;;;;;5038630;28;20014;-78
2022/06/07 03:53:57;;;;;;;2.05;0.13;;;16.90;74.90;;;;;;5036654;28;20040;-82
2022/06/07 03:56:24;;;;;;;0.00;0.00;;;16.90;74.90;;;;;;5035877;28;20028;-80
2022/06/07 03:58:53;;;;;;;1.17;0.10;;;16.90;74.70;;;;;;5035573;28;20048;-80
2022/06/07 04:01:23;;;;;;;0.00;0.00;;;16.80;75.10;;;;;;5034938;28;20022;-76
2022/06/07 04:03:53;;;;;;;0.00;0.00;;;16.70;75.50;;;;;;5034543;28;20045;-80
2022/06/07 04:06:33;;;;;;;0.40;0.10;;;16.70;75.90;;;;;;5038270;28;20108;-81
2022/06/07 04:09:00;;;;;;;0.70;0.10;;;16.60;75.60;;;;;;5033388;28;20060;-77
2022/06/07 04:11:28;;;;;;;1.15;0.17;;;16.30;76.30;;;;;;5033878;28;20479;-78
2022/06/07 04:13:57;;;;;;;1.55;0.30;;;16.20;76.00;;;;;;5061566;28;20713;-78
2022/06/07 04:16:29;;;;;;;1.55;0.10;;;16.10;76.80;;;;;;5030632;28;20025;-79
2022/06/07 04:18:56;;;;;;;0.15;0.15;;;16.10;77.00;;;;;;5036194;28;20033;-79
2022/06/07 04:21:24;;;;;;;0.10;0.10;;;16.00;77.00;;;;;;5043535;28;20083;-75
2022/06/07 04:23:54;;;;;;;0.05;0.03;;;16.00;77.20;;;;;;5035429;28;20455;-79
2022/06/07 04:26:25;;;;;;;0.03;0.03;;;15.90;78.00;;;;;;5046528;28;20029;-77
2022/06/07 04:28:53;;;;;;;0.13;0.10;;;15.90;78.30;;;;;;5051089;28;20064;-80
2022/06/07 04:31:23;;;;;;;0.20;0.10;;;16.00;79.00;;;;;;5045492;28;20032;-82
2022/06/07 04:33:51;;;;;;;0.10;0.10;;;16.00;77.60;;;;;;5042855;28;20492;-80
2022/06/07 04:36:21;;;;;;;0.10;0.10;;;16.00;77.20;;;;;;5048597;28;20040;-82
2022/06/07 04:38:51;;;;;;;0.35;0.17;;;16.10;78.00;;;;;;5040388;28;20087;-81
2022/06/07 04:41:20;;;;;;;0.85;0.10;;;16.10;77.50;;;;;;5032317;28;20026;-77
2022/06/07 04:43:49;;;;;;;0.20;0.10;;;16.10;77.70;;;;;;5035794;28;20125;-79
2022/06/07 04:46:16;;;;;;;0.10;0.10;;;16.00;77.10;;;;;;5038315;28;20052;-80
2022/06/07 04:48:45;;;;;;;0.10;0.10;;;16.10;77.50;;;;;;5039814;28;20045;-78
2022/06/07 04:51:19;;;;;;;0.22;0.22;;;16.00;76.80;;;;;;5041193;28;20037;-78
2022/06/07 04:53:48;;;;;;;0.15;0.10;;;15.90;77.50;;;;;;5048554;28;20086;-77
2022/06/07 04:56:22;;;;;;;0.63;0.10;;;15.80;77.90;;;;;;5035395;28;20207;-79
2022/06/07 04:58:50;;;;;;;0.10;0.10;;;15.70;79.20;;;;;;5035584;28;20540;-77
2022/06/07 05:01:22;;;;;;;1.55;0.13;;;15.70;79.10;;;;;;5044496;28;20044;-77
2022/06/07 05:03:51;;;;;;;1.38;0.05;;;15.60;78.80;;;;;;5037990;28;20562;-76
2022/06/07 05:06:26;;;;;;;0.10;0.10;;;15.60;79.40;;;;;;5034490;28;20210;-81
2022/06/07 05:09:00;;;;;;;0.80;0.10;;;15.60;80.20;;;;;;5030776;28;20092;-78
2022/06/07 05:11:28;;;;;;;0.10;0.10;;;15.70;79.90;;;;;;5032490;28;20032;-78
2022/06/07 05:13:57;;;;;;;0.20;0.10;;;15.70;79.70;;;;;;5037172;28;20471;-78
2022/06/07 05:16:25;;;;;;;0.55;0.10;;;15.80;80.10;;;;;;5033398;28;20459;-80
2022/06/07 05:18:54;;;;;;;0.17;0.00;;;15.80;79.80;;;;;;5065436;28;20048;-79
2022/06/07 05:21:24;;;;;;;0.20;0.00;;;15.70;79.30;;;;;;5046296;28;20029;-78
2022/06/07 05:23:52;;;;;;;0.22;0.10;;;15.80;79.70;;;;;;5044430;28;20037;-79
2022/06/07 05:26:33;;;;;;;0.20;0.00;;;15.70;79.60;;;;;;5030137;28;20444;-76
2022/06/07 05:29:01;;;;;;;0.50;0.15;;;15.60;79.60;;;;;;5036369;28;20403;-81
2022/06/07 05:31:28;;;;;;;1.27;0.20;;;15.50;79.50;;;;;;5045928;28;20037;-80
2022/06/07 05:33:56;;;;;;;0.80;0.10;;;15.40;80.40;;;;;;5034660;28;20034;-80
2022/06/07 05:36:24;;;;;;;0.00;0.00;;;15.20;80.50;;;;;;5037313;28;20052;-79
2022/06/07 05:38:51;;;;;;;0.10;0.10;;;15.20;81.20;;;;;;5029420;28;20061;-81
2022/06/07 05:41:22;;;;;;;0.15;0.10;;;15.10;81.20;;;;;;5030597;28;20025;-77
2022/06/07 05:43:50;;;;;;;0.20;0.08;;;15.10;81.40;;;;;;5035934;28;20082;-82
2022/06/07 05:46:17;;;;;;;1.10;0.20;;;15.10;81.60;;;;;;5036627;28;20039;-80
2022/06/07 05:48:45;;;;;;;0.50;0.30;;;15.10;81.80;;;;;;5047881;28;20426;-75
2022/06/07 05:51:13;;;;;;;0.00;0.00;;;15.10;81.40;;;;;;5045876;28;20048;-78
2022/06/07 05:53:40;;;;;;;2.78;0.57;;;15.00;81.90;;;;;;5051812;28;20021;-80
2022/06/07 05:56:14;;;;;;;1.27;0.20;;;15.00;81.60;;;;;;5043323;28;20502;-83
2022/06/07 05:58:42;;;;;;;0.17;0.10;;;15.10;81.80;;;;;;5034127;28;20112;-81
2022/06/07 06:01:09;;;;;;;0.32;0.10;;;15.10;81.80;;;;;;5034011;28;20380;-79
2022/06/07 06:03:39;;;;;;;0.30;0.10;;;15.10;81.20;;;;;;5036302;28;20585;-76
2022/06/07 06:06:09;;;;;;;0.50;0.10;;;15.20;80.50;;;;;;5048526;28;20483;-77
2022/06/07 06:11:23;;;;;;;0.30;0.20;;;15.20;80.10;;;;;;5038771;28;20055;-78
2022/06/07 06:13:51;;;;;;;0.45;0.28;;;15.30;80.00;;;;;;5045819;28;20044;-79
2022/06/07 06:16:21;;;;;;;0.05;0.05;;;15.30;79.90;;;;;;5039370;28;20456;-78
2022/06/07 06:18:51;;;;;;;0.20;0.10;;;15.30;80.10;;;;;;5037276;28;20167;-83
2022/06/07 06:21:20;;;;;;;0.55;0.10;;;15.30;81.20;;;;;;5041962;28;20029;-80
2022/06/07 06:23:47;;;;;;;0.45;0.28;;;15.30;80.30;;;;;;5045408;28;20033;-78
2022/06/07 06:26:22;;;;;;;0.30;0.25;;;15.30;80.90;;;;;;5033813;28;20045;-81
2022/06/07 06:28:49;;;;;;;0.30;0.15;;;15.20;80.70;;;;;;5042635;28;20110;-79
2022/06/07 06:31:17;;;;;;;1.40;0.75;;;15.00;80.70;;;;;;5032193;28;20095;-78
2022/06/07 06:33:50;;;;;;;0.57;0.20;;;14.90;81.50;;;;;;5041356;28;20486;-80
2022/06/07 06:36:20;;;;;;;0.50;0.40;;;14.70;81.70;;;;;;5048969;28;20037;-82
2022/06/07 06:38:48;;;;;;;2.47;0.60;;;14.50;82.40;;;;;;5031774;28;20048;-79
2022/06/07 06:41:17;;;;;;;2.65;0.88;;;14.30;83.00;;;;;;5032329;28;20472;-74
2022/06/07 06:43:44;;;;;;;0.73;0.40;;;14.20;83.40;;;;;;5031543;28;20029;-78
2022/06/07 06:46:16;;;;;;;1.00;0.60;;;14.00;83.30;;;;;;5031850;28;20048;-80
2022/06/07 06:48:43;;;;;;;2.95;2.75;;;13.90;84.00;;;;;;5032051;28;20388;-81
2022/06/07 06:51:17;;;;;;;0.68;0.40;;;13.80;84.60;;;;;;5032063;28;20029;-82
2022/06/07 06:53:46;;;;;;;0.28;0.20;;;13.70;84.80;;;;;;5036108;28;20056;-80
2022/06/07 06:56:15;;;;;;;0.28;0.28;;;13.60;85.00;;;;;;5032556;28;20034;-78
2022/06/07 06:58:43;;;;;;;0.85;0.52;;;13.50;85.40;;;;;;5036218;28;20030;-79
2022/06/07 07:01:13;;;;;;;0.20;0.10;;;13.40;86.00;;;;;;5043969;28;20029;-83
2022/06/07 07:03:42;;;;;;;0.17;0.10;;;13.50;85.40;;;;;;5038695;28;20550;-80
2022/06/07 07:06:13;;;;;;;0.50;0.30;;;13.50;85.50;;;;;;5043124;28;20014;-80
2022/06/07 07:08:42;;;;;;;0.32;0.20;;;13.40;86.10;;;;;;5037521;28;20360;-82
2022/06/07 07:11:27;;;;;;;0.38;0.22;;;13.30;86.30;;;;;;5033611;28;20472;-81
2022/06/07 07:13:56;;;;;;;6.18;4.40;;;13.40;85.00;;;;;;5036519;28;20033;-79
2022/06/07 07:16:30;;;;;;;1.52;0.57;;;13.40;85.70;;;;;;5049404;28;20036;-80
2022/06/07 07:18:58;;;;;;;0.20;0.20;;;13.40;85.80;;;;;;5040879;28;20041;-79
2022/06/07 07:21:34;;;;;;;0.38;0.08;;;13.40;86.00;;;;;;5037852;28;20526;-80
2022/06/07 07:24:11;;;;;;;1.50;0.20;;;13.50;85.10;;;;;;5038171;28;20364;-82
2022/06/07 07:26:39;;;;;;;0.10;0.10;;;13.50;85.30;;;;;;5051869;28;20028;-80
2022/06/07 07:29:07;;;;;;;0.55;0.22;;;13.50;85.00;;;;;;5040457;28;20029;-79
2022/06/07 07:31:36;;;;;;;0.40;0.22;;;13.60;85.20;;;;;;5031160;28;20126;-81
2022/06/07 07:34:07;;;;;;;0.20;0.10;;;13.60;85.20;;;;;;5044059;28;20025;-80
2022/06/07 07:36:36;;;;;;;0.95;0.30;;;13.60;84.90;;;;;;5052359;28;20029;-81
2022/06/07 07:39:04;;;;;;;0.10;0.10;;;13.70;84.80;;;;;;5039425;28;20060;-81
2022/06/07 07:41:36;;;;;;;0.28;0.10;;;13.70;85.20;;;;;;5031968;28;20429;-81
2022/06/07 07:44:07;;;;;;;0.93;0.22;;;13.70;85.40;;;;;;5035140;28;20040;-82
2022/06/07 07:46:36;;;;;;;2.92;1.65;;;13.70;85.80;;;;;;5046165;28;20028;-78
2022/06/07 07:49:05;;;;;;;0.50;0.40;;;13.70;86.10;;;;;;5043553;28;20064;-80
2022/06/07 07:51:38;;;;;;;0.30;0.20;;;13.60;86.60;;;;;;5042547;28;20550;-80
2022/06/07 07:54:09;;;;;;;0.10;0.10;;;13.60;86.60;;;;;;5043395;28;20481;-80
2022/06/07 07:56:37;;;;;;;1.20;0.10;;;13.60;87.70;;;;;;5031854;28;20034;-78
2022/06/07 07:59:06;;;;;;;0.00;0.00;;;13.50;89.20;;;;;;5037319;28;20044;-77
2022/06/07 08:01:35;;;;;;;2.00;0.10;;;13.30;90.20;;;;;;5039605;28;20138;-77
2022/06/07 08:04:03;;;;;;;0.00;0.00;;;13.20;90.70;;;;;;5034453;28;20487;-78
2022/06/07 08:06:32;;;;;;;0.45;0.20;;;13.00;91.00;;;;;;5035542;28;20117;-78
2022/06/07 08:09:01;;;;;;;0.75;0.17;;;13.00;91.30;;;;;;5037454;28;20112;-75
2022/06/07 08:11:34;;;;;;;0.05;0.05;;;12.80;91.70;;;;;;5030890;28;20033;-75
2022/06/07 08:14:03;;;;;;;0.22;0.10;;;12.70;92.00;;;;;;5032627;28;20026;-77
2022/06/07 08:16:31;;;;;;;0.40;0.20;;;12.60;92.30;;;;;;5043810;28;20467;-79
2022/06/07 08:18:59;;;;;;;0.30;0.20;;;12.40;92.50;;;;;;5045797;28;20037;-80
2022/06/07 08:21:28;;;;;;;0.35;0.22;;;12.30;92.80;;;;;;5037377;28;20388;-80
2022/06/07 08:23:57;;;;;;;0.45;0.20;;;12.20;93.10;;;;;;5047557;28;20052;-77
2022/06/07 08:26:30;;;;;;;1.70;0.20;;;12.00;93.40;;;;;;5044253;28;20082;-76
2022/06/07 08:28:58;;;;;;;0.88;0.50;;;11.90;93.80;;;;;;5033577;28;20079;-80
2022/06/07 08:31:30;;;;;;;0.50;0.40;;;11.90;94.00;;;;;;5033262;28;20436;-77
2022/06/07 08:39:31;;;;;;;0.55;0.30;;;11.70;94.70;;;;;;5041303;28;20178;-80
2022/06/07 08:42:04;;;;;;;0.50;0.30;;;11.60;94.90;;;;;;5049270;28;20113;-76
2022/06/07 08:44:40;;;;;;;0.25;0.25;;;11.60;95.10;;;;;;5034398;28;20029;-79
2022/06/07 08:47:30;;;;;;;;;;;11.50;95.30;;;;;;5048395;28;20118;-80
2022/06/07 08:50:00;;;;;;;0.93;0.40;;;11.40;95.50;;;;;;5043964;28;20371;-81
2022/06/07 08:52:36;;;;;;;2.65;0.90;;;11.30;95.50;;;;;;5035567;28;20033;-82
2022/06/07 08:55:17;;;;;;;0.63;0.43;;;11.30;95.80;;;;;;5035092;28;20033;-80
2022/06/07 08:57:55;;;;;;;3.13;0.45;;;11.20;95.80;;;;;;5029876;28;20151;-74
2022/06/07 09:00:28;;;;;;;1.25;0.20;;;11.20;95.90;;;;;;5029828;28;20508;-77
2022/06/07 09:03:12;;;;;;;0.52;0.20;;;11.20;95.80;;;;;;5029059;28;20041;-77
2022/06/07 09:05:39;;;;;;;0.75;0.30;;;11.10;95.90;;;;;;5033454;28;20080;-80
2022/06/07 09:08:09;;;;;;;0.50;0.30;;;11.10;96.00;;;;;;5039609;28;20040;-78
2022/06/07 09:13:25;;;;;;;0.20;0.20;;;11.00;96.20;;;;;;5029672;28;20036;-81
2022/06/07 09:15:56;;;;;;;2.00;0.60;;;11.00;96.40;;;;;;5042372;28;20116;-81
2022/06/07 09:18:27;;;;;;;1.08;0.40;;;10.90;96.50;;;;;;5048607;28;20084;-79
2022/06/07 09:20:59;;;;;;;1.02;0.20;;;10.90;96.60;;;;;;5033249;28;20030;-80
2022/06/07 09:23:27;;;;;;;2.92;1.40;;;10.80;96.80;;;;;;5035327;28;20044;-80
2022/06/07 09:25:58;;;;;;;3.97;1.05;;;10.70;97.00;;;;;;5049432;28;20033;-79
2022/06/07 09:28:29;;;;;;;2.17;0.65;;;10.70;97.10;;;;;;5048160;28;20022;-79
2022/06/07 09:31:12;;;;;;;3.25;0.70;;;10.60;97.40;;;;;;5053073;28;20025;-77
2022/06/07 09:34:06;;;;;;;2.08;0.90;;;10.60;97.20;;;;;;5041478;28;20113;-78
2022/06/07 09:36:43;;;;;;;1.50;0.80;;;10.50;97.20;;;;;;5044871;28;20089;-80
2022/06/07 09:39:34;;;;;;;1.92;0.80;;;10.50;97.30;;;;;;5046307;28;20099;-78
2022/06/07 09:42:18;;;;;;;2.90;0.70;;;10.40;97.10;;;;;;5049307;28;20295;-76
2022/06/07 09:45:12;;;;;;;2.13;0.85;;;10.40;97.20;;;;;;5042134;28;20067;-75
2022/06/07 09:47:40;;;;;;;0.80;0.50;;;10.40;97.10;;;;;;5035927;28;20028;-79
2022/06/07 09:50:26;;;;;;;0.90;0.47;;;10.30;97.10;;;;;;5040535;28;20404;-79
2022/06/07 09:53:06;;;;;;;1.98;0.80;;;10.30;97.10;;;;;;5048176;28;20044;-80
2022/06/07 09:55:52;;;;;;;0.63;0.25;;;10.30;96.90;;;;;;5041579;28;20041;-78
2022/06/07 09:58:43;;;;;;;0.63;0.40;;;10.20;97.00;;;;;;5044683;28;20075;-79
2022/06/07 10:01:36;;;;;;;0.85;0.40;;;10.20;97.10;;;;;;5046270;28;20043;-77
2022/06/07 10:04:33;;;;;;;2.45;0.40;;;10.10;97.10;;;;;;5034511;28;20148;-75
2022/06/07 10:07:18;;;;;;;0.65;0.30;;;10.00;97.20;;;;;;5043060;28;20052;-80
2022/06/07 10:10:15;;;;;;;0.40;0.40;;;9.90;97.40;;;;;;5034146;28;20033;-77
2022/06/07 10:13:10;;;;;;;0.52;0.30;;;9.70;97.70;;;;;;5053877;28;20269;-82
2022/06/07 10:15:52;;;;;;;1.20;0.50;;;9.70;98.00;;;;;;5041855;28;20071;-83
2022/06/07 10:18:49;;;;;;;0.68;0.47;;;9.60;98.20;;;;;;5048868;28;20109;-79
2022/06/07 10:21:52;;;;;;;1.90;0.60;;;9.50;98.50;;;;;;5034405;28;20040;-81
2022/06/07 10:24:53;;;;;;;1.55;0.43;;;9.50;98.50;;;;;;5036903;28;20159;-80
2022/06/07 10:27:55;;;;;;;0.88;0.50;;;9.50;98.60;;;;;;5044996;28;20025;-81
2022/06/07 10:30:57;;;;;;;1.88;0.73;;;9.40;98.90;;;;;;5029759;28;20038;-79
2022/06/07 10:34:21;;;;;;;2.00;0.70;;;9.40;98.80;;;;;;5034183;28;20120;-80
2022/06/07 10:37:11;;;;;;;2.95;1.00;;;9.30;98.90;;;;;;5040188;28;20025;-80
2022/06/07 10:39:38;;;;;;;6.40;1.75;;;9.20;99.10;;;;;;5040077;28;20041;-83
2022/06/07 10:42:12;;;;;;;5.65;1.45;;;9.20;99.10;;;;;;5033330;28;20037;-82
2022/06/07 10:44:42;;;;;;;4.10;1.50;;;9.10;99.30;;;;;;5045496;28;20033;-83
2022/06/07 10:47:21;;;;;;;3.40;1.10;;;9.00;99.50;;;;;;5052450;28;20033;-83
2022/06/07 10:50:01;;;;;;;3.17;1.17;;;9.00;99.70;;;;;;5046487;28;20521;-82
2022/06/07 10:53:03;;;;;;;3.10;0.70;;;8.90;99.80;;;;;;5043636;28;20025;-82
2022/06/07 10:55:34;;;;;;;4.63;2.17;;;8.80;99.90;;;;;;5051302;28;20040;-82
2022/06/07 10:58:26;;;;;;;27.05;8.98;;;8.70;99.90;;;;;;5039945;28;20108;-84
2022/06/07 11:01:06;;;;;;;53.22;22.15;;;8.60;99.90;;;;;;5047242;28;20052;-81
2022/06/07 11:03:58;;;;;;;41.17;17.77;;;8.50;99.90;;;;;;5047516;28;20037;-82
2022/06/07 11:09:47;;;;;;;3.45;0.80;;;8.50;99.90;;;;;;5050296;28;20079;-82
2022/06/07 11:12:20;;;;;;;2.72;0.70;;;8.50;99.90;;;;;;5043048;28;20086;-81
2022/06/07 11:15:19;;;;;;;2.25;0.95;;;8.50;99.90;;;;;;5042974;28;20037;-77
2022/06/07 11:18:04;;;;;;;2.55;0.70;;;8.60;99.90;;;;;;5029410;28;20041;-80
2022/06/07 11:20:36;;;;;;;0.55;0.50;;;8.70;99.90;;;;;;5044120;28;20044;-79
2022/06/07 11:23:15;;;;;;;0.95;0.55;;;8.70;99.90;;;;;;5041109;28;20051;-81
2022/06/07 11:25:45;;;;;;;1.42;0.60;;;8.70;99.70;;;;;;5036933;28;20047;-80
2022/06/07 11:28:24;;;;;;;1.58;0.73;;;8.80;99.50;;;;;;5040535;28;20024;-78
2022/06/07 11:30:53;;;;;;;1.67;0.90;;;8.80;99.70;;;;;;5033107;28;20033;-79
2022/06/07 11:34:01;;;;;;;1.42;0.93;;;8.70;99.70;;;;;;5041763;28;20036;-79
2022/06/07 11:36:30;;;;;;;;;;;8.70;99.80;;;;;;5032160;28;20040;-78
2022/06/07 11:39:02;;;;;;;3.13;1.45;;;8.70;99.80;;;;;;5035112;28;19928;-75
2022/06/07 11:41:38;;;;;;;2.65;1.33;;;8.60;99.90;;;;;;5038092;28;20033;-76
2022/06/07 11:44:11;;;;;;;4.32;1.05;;;8.50;99.90;;;;;;5033407;28;20028;-75
2022/06/07 11:46:51;;;;;;;5.45;2.47;;;8.40;99.90;;;;;;5031277;28;20045;-75
2022/06/07 11:49:24;;;;;;;4.78;1.77;;;8.30;99.90;;;;;;5031005;28;20049;-79
2022/06/07 11:51:57;;;;;;;7.05;1.88;;;8.20;99.90;;;;;;5036740;28;20039;-79
2022/06/07 11:54:48;;;;;;;5.75;1.25;;;8.10;99.90;;;;;;5038025;28;20036;-78
2022/06/07 11:57:36;;;;;;;2.50;1.10;;;8.00;99.90;;;;;;5036304;28;20432;-77
2022/06/07 12:00:15;;;;;;;5.30;1.40;;;7.90;99.90;;;;;;5044313;28;20041;-80
2022/06/07 12:03:03;;;;;;;3.95;1.55;;;7.80;99.90;;;;;;5037026;28;20029;-76
2022/06/07 12:05:54;;;;;;;5.65;1.75;;;7.70;99.90;;;;;;5036315;28;20049;-78
2022/06/07 12:08:44;;;;;;;2.60;1.73;;;7.60;99.90;;;;;;5031323;28;20060;-79
2022/06/07 12:11:20;;;;;;;5.53;1.45;;;7.60;99.90;;;;;;5031121;28;20132;-78
2022/06/07 12:14:02;;;;;;;4.20;1.50;;;7.60;99.90;;;;;;5031800;28;20071;-81
2022/06/07 12:16:41;;;;;;;3.08;1.10;;;7.70;99.90;;;;;;5034808;28;20021;-74
2022/06/07 12:19:24;;;;;;;5.20;1.65;;;7.60;99.90;;;;;;5032572;28;20040;-82
2022/06/07 12:22:02;;;;;;;3.05;0.95;;;7.50;99.90;;;;;;5029656;28;20021;-82
2022/06/07 12:24:43;;;;;;;3.25;1.30;;;7.50;99.90;;;;;;5032857;28;20040;-78
2022/06/07 12:27:31;;;;;;;3.95;2.30;;;7.40;99.90;;;;;;5037046;28;20017;-83
2022/06/07 12:30:19;;;;;;;4.60;1.77;;;7.40;99.90;;;;;;5034759;28;20064;-79
2022/06/07 12:32:49;;;;;;;4.00;1.98;;;7.40;99.90;;;;;;5034159;28;20025;-79
2022/06/07 12:35:28;;;;;;;4.82;1.98;;;7.40;99.90;;;;;;5027820;28;20025;-79
2022/06/07 12:37:58;;;;;;;3.63;1.90;;;7.40;99.90;;;;;;5031894;28;20037;-81
2022/06/07 12:40:30;;;;;;;3.28;1.80;;;7.30;99.90;;;;;;5034399;28;20037;-82
2022/06/07 12:42:58;;;;;;;4.30;1.95;;;7.30;99.90;;;;;;5027926;28;20033;-82
2022/06/07 12:45:34;;;;;;;4.45;1.63;;;7.20;99.90;;;;;;5032770;28;20043;-80
2022/06/07 12:48:14;;;;;;;4.53;2.50;;;7.20;99.90;;;;;;5048427;28;20463;-77
2022/06/07 12:50:45;;;;;;;6.70;2.30;;;7.10;99.90;;;;;;5032201;28;20044;-77
2022/06/07 12:53:24;;;;;;;27.25;10.60;;;7.00;99.90;;;;;;5043907;28;20036;-75
2022/06/07 12:56:11;;;;;;;9.48;4.60;;;7.00;99.90;;;;;;5033953;28;20036;-77
2022/06/07 12:58:45;;;;;;;7.95;4.35;;;7.10;99.90;;;;;;5040689;28;20038;-79
2022/06/07 13:01:24;;;;;;;3.85;2.08;;;7.10;99.90;;;;;;5031834;28;20037;-79
2022/06/07 13:03:56;;;;;;;2.38;1.35;;;7.20;99.90;;;;;;5042694;28;20457;-79
2022/06/07 13:06:24;;;;;;;0.95;0.50;;;7.30;99.90;;;;;;5051436;28;20033;-78
2022/06/07 13:09:15;;;;;;;0.85;0.30;;;7.40;99.90;;;;;;5051279;28;20080;-77
2022/06/07 13:11:42;;;;;;;0.98;0.60;;;7.50;99.90;;;;;;5042029;28;20032;-79
2022/06/07 13:14:14;;;;;;;0.80;0.35;;;7.80;99.90;;;;;;5033732;28;20441;-78
2022/06/07 13:16:46;;;;;;;0.93;0.40;;;7.90;99.90;;;;;;5037881;28;20033;-81
2022/06/07 13:19:17;;;;;;;0.93;0.60;;;7.90;99.90;;;;;;5045882;28;20664;-81
2022/06/07 13:22:02;;;;;;;1.80;0.85;;;7.80;99.90;;;;;;5052720;28;20029;-81
2022/06/07 13:24:42;;;;;;;2.03;0.82;;;7.80;99.90;;;;;;5048346;28;20469;-78
2022/06/07 13:27:38;;;;;;;3.67;1.25;;;7.60;99.90;;;;;;5041157;28;20032;-80
2022/06/07 13:30:26;;;;;;;4.35;1.77;;;7.50;99.90;;;;;;5047278;28;20025;-83
2022/06/07 13:33:26;;;;;;;6.25;2.17;;;7.30;99.90;;;;;;5032964;28;20030;-82
2022/06/07 13:36:00;;;;;;;10.43;2.22;;;7.20;99.90;;;;;;5040483;28;20025;-82
2022/06/07 13:38:42;;;;;;;11.27;3.33;;;7.10;99.90;;;;;;5043058;28;20483;-78
2022/06/07 13:41:18;;;;;;;9.13;2.80;;;7.00;99.90;;;;;;5054004;28;20040;-79
2022/06/07 13:43:56;;;;;;;;;;;7.00;99.90;;;;;;5033538;28;20364;-78